Cooley, Minnesota
Current Conditions -  °F | °C
As of 11:55 AM on Thursday 30 Oct 2014 (Local Time) from KGPZ Reporting Station
Overcast Overcast  
Wind Chill: 29°   Ceiling: 2600
Heat Index: 37°   Visibility: 10mi
Dew Point: 30°   Wind: 14mph
Humidity: 75%   Direction: 340°NNW
Pressure: 30.12"   Gusts: 20mph
Location:  47.5025°N, 93.3734°W
Report Text: KGPZ 301655Z AUTO 34012G17KT 10SM SCT020 OVC026 03/M01 A3012 RMK AO1
Loading
Personal Weather Stations






























Interactive Weather Map
Tropical Storm Tracking
New forecast layout! Learn more

10-Day Weather Forecast

Advertisements
Track Severe Weather on mobile